createdAt,value
2022-12-15T00:00:24.930Z,20.96
2022-12-15T00:03:45.562Z,20.96
2022-12-15T00:13:47.109Z,20.93
2022-12-15T00:17:09.102Z,20.97
2022-12-15T00:20:29.469Z,21.01
2022-12-15T00:23:49.732Z,21.00
2022-12-15T00:27:10.148Z,21.00
2022-12-15T00:30:31.116Z,20.98
2022-12-15T00:33:53.259Z,20.97
2022-12-15T00:37:13.775Z,20.97
2022-12-15T00:40:16.952Z,20.93
2022-12-15T00:43:19.957Z,20.96
2022-12-15T00:46:40.656Z,20.94
2022-12-15T00:53:22.709Z,20.93
2022-12-15T00:56:43.600Z,20.90
2022-12-15T01:00:03.660Z,20.93
2022-12-15T01:03:30.075Z,20.92
2022-12-15T01:06:52.494Z,20.93
2022-12-15T01:10:13.047Z,20.93
2022-12-15T01:13:33.496Z,20.92
2022-12-15T01:16:54.305Z,20.86
2022-12-15T01:20:18.200Z,20.92
2022-12-15T01:23:22.683Z,20.93
2022-12-15T01:26:25.751Z,20.91
2022-12-15T01:29:28.747Z,20.91
2022-12-15T01:32:32.476Z,20.92
2022-12-15T01:35:35.448Z,20.93
2022-12-15T01:38:39.882Z,20.92
2022-12-15T01:44:48.272Z,20.98
2022-12-15T01:47:51.490Z,20.97
2022-12-15T01:51:02.500Z,20.98
2022-12-15T01:54:10.640Z,20.97
2022-12-15T01:57:26.666Z,20.89
2022-12-15T02:00:30.776Z,20.98
2022-12-15T02:03:34.508Z,20.91
2022-12-15T02:06:38.323Z,20.96
2022-12-15T02:09:44.055Z,20.97
2022-12-15T02:12:55.402Z,20.95
2022-12-15T02:16:05.501Z,20.92
2022-12-15T02:19:28.997Z,20.93
2022-12-15T02:22:48.676Z,20.92
2022-12-15T02:26:29.890Z,20.90
2022-12-15T02:29:59.390Z,20.90
2022-12-15T02:33:15.216Z,20.90
2022-12-15T02:36:27.543Z,20.89
2022-12-15T02:39:30.624Z,20.90
2022-12-15T02:42:36.826Z,20.89
2022-12-15T02:45:51.705Z,20.90
2022-12-15T02:49:06.809Z,20.88
2022-12-15T02:52:18.942Z,20.87
2022-12-15T02:55:29.002Z,20.88
2022-12-15T02:58:42.644Z,20.89
2022-12-15T03:01:51.071Z,20.89
2022-12-15T03:04:56.395Z,20.88
2022-12-15T03:07:59.537Z,20.89
2022-12-15T03:11:03.532Z,20.87
2022-12-15T03:14:06.495Z,20.89
2022-12-15T03:17:09.533Z,20.89
2022-12-15T03:20:14.058Z,20.90
2022-12-15T03:23:17.198Z,20.89
2022-12-15T03:26:20.195Z,20.90
2022-12-15T03:29:23.222Z,20.89
2022-12-15T03:32:26.263Z,20.90
2022-12-15T03:35:33.285Z,20.90
2022-12-15T03:38:36.310Z,20.89
2022-12-15T03:41:39.392Z,20.91
2022-12-15T03:44:42.479Z,20.84
2022-12-15T03:47:46.247Z,20.91
2022-12-15T03:50:50.783Z,20.90
2022-12-15T03:53:54.517Z,20.89
2022-12-15T03:56:57.552Z,20.91
2022-12-15T04:00:00.590Z,20.90
2022-12-15T04:03:03.763Z,20.90
2022-12-15T04:06:08.629Z,20.90
2022-12-15T04:09:11.679Z,20.90
2022-12-15T04:12:14.872Z,20.90
2022-12-15T04:15:17.988Z,20.91
2022-12-15T04:18:21.760Z,20.91
2022-12-15T04:21:25.170Z,20.89
2022-12-15T04:24:45.670Z,20.91
2022-12-15T04:28:06.261Z,20.93
2022-12-15T04:31:28.806Z,20.96
2022-12-15T04:34:49.344Z,20.93
2022-12-15T04:41:31.840Z,20.96
2022-12-15T04:44:52.237Z,20.93
2022-12-15T04:48:12.755Z,20.93
2022-12-15T04:51:33.165Z,20.93
2022-12-15T04:54:54.971Z,20.92
2022-12-15T04:58:15.378Z,20.91
2022-12-15T05:01:35.851Z,20.90
2022-12-15T05:04:56.576Z,20.93
2022-12-15T05:08:17.642Z,20.99
2022-12-15T05:11:39.765Z,21.00
2022-12-15T05:14:59.844Z,20.96
2022-12-15T05:18:20.235Z,21.05
2022-12-15T05:21:40.689Z,21.04
2022-12-15T05:25:00.719Z,21.01
2022-12-15T05:28:25.081Z,20.99
2022-12-15T05:31:45.584Z,20.97
2022-12-15T05:34:48.566Z,20.96
2022-12-15T05:37:51.579Z,20.93
2022-12-15T05:40:54.639Z,20.92
2022-12-15T05:43:59.098Z,20.92
2022-12-15T05:47:02.139Z,20.92
2022-12-15T05:50:05.980Z,20.92
2022-12-15T05:53:08.983Z,20.93
2022-12-15T05:56:13.623Z,20.93
2022-12-15T05:59:17.999Z,20.85
2022-12-15T06:02:21.335Z,20.93
2022-12-15T06:05:24.461Z,20.96
2022-12-15T06:08:27.500Z,20.97
2022-12-15T06:11:30.453Z,20.98
2022-12-15T06:14:36.352Z,20.97
2022-12-15T06:17:39.424Z,20.99
2022-12-15T06:20:42.482Z,21.00
2022-12-15T06:23:45.923Z,20.99
2022-12-15T06:26:49.729Z,20.99
2022-12-15T06:29:54.522Z,20.98
2022-12-15T06:32:57.674Z,20.98
2022-12-15T06:36:04.505Z,20.99
2022-12-15T06:39:09.439Z,20.98
2022-12-15T06:42:12.685Z,20.97
2022-12-15T06:45:17.164Z,20.97
2022-12-15T06:48:20.500Z,20.91
2022-12-15T06:51:23.879Z,20.97
2022-12-15T06:54:26.919Z,20.96
2022-12-15T06:57:29.877Z,20.97
2022-12-15T07:00:34.808Z,20.93
2022-12-15T07:03:40.885Z,21.02
2022-12-15T07:06:45.333Z,21.12
2022-12-15T07:09:48.530Z,21.29
2022-12-15T07:12:51.533Z,21.25
2022-12-15T07:15:55.897Z,21.58
2022-12-15T07:18:59.005Z,21.61
2022-12-15T07:22:01.972Z,21.48
2022-12-15T07:25:05.608Z,21.47
2022-12-15T07:28:09.159Z,21.42
2022-12-15T07:31:13.555Z,21.39
2022-12-15T07:34:16.524Z,21.45
2022-12-15T07:37:19.479Z,21.42
2022-12-15T07:40:22.696Z,21.40
2022-12-15T07:43:25.694Z,21.38
2022-12-15T07:46:30.321Z,21.37
2022-12-15T07:49:33.404Z,21.34
2022-12-15T07:52:36.633Z,21.32
2022-12-15T07:56:05.642Z,21.30
2022-12-15T07:59:02.725Z,21.30
2022-12-15T08:02:07.380Z,21.29
2022-12-15T08:05:11.231Z,21.19
2022-12-15T08:08:15.517Z,21.24
2022-12-15T08:11:19.936Z,21.26
2022-12-15T08:14:23.385Z,21.26
2022-12-15T08:17:28.041Z,21.29
2022-12-15T08:20:31.665Z,21.34
2022-12-15T08:23:34.984Z,21.38
2022-12-15T08:26:38.983Z,21.40
2022-12-15T08:29:51.613Z,21.41
2022-12-15T08:32:56.744Z,21.42
2022-12-15T08:36:01.224Z,21.41
2022-12-15T08:39:04.532Z,21.41
2022-12-15T08:42:07.762Z,21.39
2022-12-15T08:45:12.399Z,21.39
2022-12-15T08:48:16.984Z,21.34
2022-12-15T08:51:21.584Z,21.41
2022-12-15T08:54:24.555Z,21.34
2022-12-15T08:57:27.813Z,21.43
2022-12-15T09:00:30.890Z,21.42
2022-12-15T09:03:36.434Z,21.35
2022-12-15T09:06:39.661Z,21.30
2022-12-15T09:09:43.223Z,21.29
2022-12-15T09:12:46.907Z,21.27
2022-12-15T09:16:09.416Z,21.25
2022-12-15T09:19:14.997Z,21.23
2022-12-15T09:22:18.041Z,21.22
2022-12-15T09:25:21.072Z,21.21
2022-12-15T09:28:24.243Z,21.09
2022-12-15T09:31:29.480Z,21.20
2022-12-15T09:34:34.210Z,21.20
2022-12-15T09:37:37.309Z,21.20
2022-12-15T09:40:40.321Z,21.16
2022-12-15T09:43:50.967Z,21.17
2022-12-15T09:47:06.258Z,21.18
2022-12-15T09:50:15.256Z,21.19
2022-12-15T09:53:52.908Z,21.16
2022-12-15T09:56:49.862Z,21.18
2022-12-15T10:00:10.184Z,21.19
2022-12-15T10:03:25.260Z,21.20
2022-12-15T10:06:34.869Z,21.21
2022-12-15T10:09:38.646Z,21.22
2022-12-15T10:12:55.289Z,21.18
2022-12-15T10:16:07.199Z,21.24
2022-12-15T10:19:15.658Z,21.22
2022-12-15T10:22:24.990Z,21.21
2022-12-15T10:25:31.176Z,21.20
2022-12-15T10:29:04.023Z,21.22
2022-12-15T10:32:17.474Z,21.21
2022-12-15T10:35:23.837Z,21.20
2022-12-15T10:38:35.037Z,21.20
2022-12-15T10:41:37.998Z,21.21
2022-12-15T10:44:43.597Z,21.14
2022-12-15T10:48:02.558Z,21.19
2022-12-15T10:51:24.682Z,21.18
2022-12-15T10:54:36.296Z,21.18
2022-12-15T10:57:39.275Z,21.18
2022-12-15T11:00:42.335Z,21.18
2022-12-15T11:03:46.139Z,21.17
2022-12-15T11:06:58.043Z,21.17
2022-12-15T11:10:09.514Z,21.18
2022-12-15T11:13:15.721Z,21.19
2022-12-15T11:16:20.461Z,21.20
2022-12-15T11:19:32.588Z,21.21
2022-12-15T11:22:44.111Z,21.21
2022-12-15T11:25:58.156Z,21.21
2022-12-15T11:29:09.153Z,21.22
2022-12-15T11:32:13.973Z,21.15
2022-12-15T11:35:23.247Z,21.24
2022-12-15T11:38:33.883Z,21.25
2022-12-15T11:41:45.371Z,21.27
2022-12-15T11:44:57.893Z,21.26
2022-12-15T11:48:10.369Z,21.29
2022-12-15T11:51:18.603Z,21.31
2022-12-15T11:54:26.967Z,21.29
2022-12-15T11:57:54.688Z,21.30
2022-12-15T12:01:08.722Z,21.32
2022-12-15T12:04:21.788Z,21.30
2022-12-15T12:07:42.018Z,21.31
2022-12-15T12:10:54.827Z,21.32
2022-12-15T12:14:17.807Z,21.29
2022-12-15T12:17:33.950Z,21.30
2022-12-15T12:20:45.042Z,21.28
2022-12-15T12:23:56.037Z,21.28
2022-12-15T12:27:03.014Z,21.28
2022-12-15T12:30:14.495Z,21.29
2022-12-15T12:33:24.373Z,21.25
2022-12-15T12:36:27.367Z,21.26
2022-12-15T12:39:33.179Z,21.26
2022-12-15T12:42:44.291Z,21.28
2022-12-15T12:45:55.638Z,21.15
2022-12-15T12:49:04.304Z,21.17
2022-12-15T12:52:20.681Z,21.24
2022-12-15T12:55:30.756Z,21.25
2022-12-15T12:58:36.024Z,21.23
2022-12-15T13:01:40.573Z,21.23
2022-12-15T13:04:44.970Z,21.15
2022-12-15T13:07:56.387Z,21.21
2022-12-15T13:11:38.385Z,21.20
2022-12-15T13:18:19.020Z,21.24
2022-12-15T13:21:53.665Z,21.01
2022-12-15T13:24:58.106Z,21.19
2022-12-15T13:28:12.345Z,21.16
2022-12-15T13:31:30.899Z,21.18
2022-12-15T13:34:39.872Z,21.16
2022-12-15T13:37:51.769Z,21.15
2022-12-15T13:40:55.406Z,21.17
2022-12-15T13:43:59.851Z,21.16
2022-12-15T13:47:10.650Z,21.16
2022-12-15T13:50:24.537Z,21.16
2022-12-15T13:53:30.195Z,21.16
2022-12-15T13:57:02.339Z,21.12
2022-12-15T14:00:07.869Z,21.08
2022-12-15T14:03:13.311Z,21.16
2022-12-15T14:06:17.845Z,21.15
2022-12-15T14:09:25.674Z,21.10
2022-12-15T14:12:28.934Z,21.14
2022-12-15T14:15:33.719Z,21.12
2022-12-15T14:18:39.099Z,21.14
2022-12-15T14:21:50.613Z,21.13
2022-12-15T14:24:59.970Z,21.15
2022-12-15T14:28:05.464Z,21.13
2022-12-15T14:31:15.654Z,21.12
2022-12-15T14:34:25.671Z,21.13
2022-12-15T14:37:30.437Z,21.12
2022-12-15T14:40:37.250Z,21.11
2022-12-15T14:43:41.438Z,21.12
2022-12-15T14:46:47.855Z,21.05
2022-12-15T14:49:52.343Z,21.11
2022-12-15T14:53:02.719Z,21.12
2022-12-15T14:56:29.464Z,21.12
2022-12-15T14:59:35.680Z,21.08
2022-12-15T15:02:40.480Z,21.12
2022-12-15T15:03:09.638Z,21.12
2022-12-15T15:05:44.715Z,21.13
2022-12-15T15:08:51.628Z,21.11
2022-12-15T15:11:57.327Z,21.08
2022-12-15T15:15:03.684Z,21.02
2022-12-15T15:18:06.786Z,21.09
2022-12-15T15:21:18.988Z,21.10
2022-12-15T15:24:26.729Z,21.12
2022-12-15T15:27:36.653Z,21.15
2022-12-15T15:30:44.780Z,21.24
2022-12-15T15:33:47.775Z,21.29
2022-12-15T15:36:50.851Z,21.26
2022-12-15T15:39:56.527Z,21.23
2022-12-15T15:42:59.614Z,21.19
2022-12-15T15:46:06.841Z,21.22
2022-12-15T15:49:13.809Z,21.21
2022-12-15T15:52:16.873Z,21.19
2022-12-15T15:55:27.249Z,21.16
2022-12-15T15:58:30.681Z,21.17
2022-12-15T16:01:34.043Z,21.17
2022-12-15T16:04:40.627Z,21.16
2022-12-15T16:07:45.730Z,21.17
2022-12-15T16:10:50.830Z,21.18
2022-12-15T16:13:53.869Z,21.15
2022-12-15T16:16:58.265Z,21.15
2022-12-15T16:20:01.296Z,21.16
2022-12-15T16:23:08.675Z,21.16
2022-12-15T16:26:16.452Z,21.17
2022-12-15T16:29:21.968Z,21.15
2022-12-15T16:32:25.040Z,21.21
2022-12-15T16:35:28.243Z,21.23
2022-12-15T16:38:33.229Z,21.26
2022-12-15T16:41:37.919Z,21.17
2022-12-15T16:44:40.990Z,21.36
2022-12-15T16:47:44.051Z,21.36
2022-12-15T16:50:50.864Z,21.35
2022-12-15T16:53:55.060Z,21.39
2022-12-15T16:57:00.098Z,21.38
2022-12-15T17:00:03.526Z,21.38
2022-12-15T17:03:07.461Z,21.37
2022-12-15T17:06:16.390Z,21.32
2022-12-15T17:09:22.285Z,21.26
2022-12-15T17:12:26.981Z,21.26
2022-12-15T17:15:30.027Z,21.26
2022-12-15T17:18:33.824Z,21.25
2022-12-15T17:21:45.140Z,21.24
2022-12-15T17:24:49.318Z,21.23
2022-12-15T17:27:56.447Z,21.22
2022-12-15T17:31:00.606Z,21.21
2022-12-15T17:34:24.791Z,21.21
2022-12-15T17:37:33.438Z,21.22
2022-12-15T17:40:38.023Z,21.22
2022-12-15T17:43:42.889Z,21.21
2022-12-15T17:46:46.551Z,21.19
2022-12-15T17:49:49.655Z,21.20
2022-12-15T17:52:52.677Z,21.21
2022-12-15T17:55:55.866Z,21.23
2022-12-15T17:59:00.296Z,21.27
2022-12-15T18:02:03.412Z,21.35
2022-12-15T18:05:07.514Z,21.38
2022-12-15T18:08:15.381Z,21.36
2022-12-15T18:11:20.080Z,21.34
2022-12-15T18:14:24.628Z,21.39
2022-12-15T18:17:27.905Z,21.35
2022-12-15T18:20:31.129Z,21.35
2022-12-15T18:23:35.033Z,21.34
2022-12-15T18:26:38.809Z,21.35
2022-12-15T18:29:43.272Z,21.38
2022-12-15T18:32:47.185Z,21.42
2022-12-15T18:35:52.556Z,21.45
2022-12-15T18:38:55.525Z,21.37
2022-12-15T18:41:58.792Z,21.35
2022-12-15T18:45:05.194Z,21.36
2022-12-15T18:48:17.014Z,21.39
2022-12-15T18:51:23.358Z,21.43
2022-12-15T18:54:26.692Z,21.48
2022-12-15T18:57:31.197Z,21.49
2022-12-15T19:00:35.819Z,21.51
2022-12-15T19:03:40.552Z,21.50
2022-12-15T19:06:44.224Z,21.51
2022-12-15T19:09:47.617Z,21.52
2022-12-15T19:12:55.292Z,21.48
2022-12-15T19:16:04.791Z,21.55
2022-12-15T19:19:25.166Z,21.53
2022-12-15T19:22:29.704Z,21.54
2022-12-15T19:25:33.823Z,21.56
2022-12-15T19:28:36.841Z,21.56
2022-12-15T19:31:41.550Z,21.56
2022-12-15T19:34:44.981Z,21.57
2022-12-15T19:37:49.770Z,21.55
2022-12-15T19:40:56.226Z,21.58
2022-12-15T19:43:59.305Z,21.59
2022-12-15T19:47:03.857Z,21.56
2022-12-15T19:50:07.453Z,21.54
2022-12-15T19:53:16.828Z,21.51
2022-12-15T19:56:23.029Z,21.54
2022-12-15T19:59:28.311Z,21.52
2022-12-15T20:02:32.885Z,21.54
2022-12-15T20:05:36.853Z,21.53
2022-12-15T20:08:43.393Z,21.53
2022-12-15T20:11:47.551Z,21.56
2022-12-15T20:14:50.803Z,21.54
2022-12-15T20:17:57.262Z,21.51
2022-12-15T20:21:01.483Z,21.47
2022-12-15T20:24:08.111Z,21.34
2022-12-15T20:27:14.359Z,21.28
2022-12-15T20:30:20.169Z,21.33
2022-12-15T20:33:24.863Z,21.31
2022-12-15T20:36:30.771Z,21.29
2022-12-15T20:39:35.078Z,21.28
2022-12-15T20:42:38.171Z,21.25
2022-12-15T20:45:41.477Z,21.19
2022-12-15T20:48:46.958Z,21.24
2022-12-15T20:51:50.928Z,21.18
2022-12-15T20:54:55.217Z,21.22
2022-12-15T20:57:58.286Z,21.22
2022-12-15T21:01:02.798Z,21.21
2022-12-15T21:04:25.424Z,21.19
2022-12-15T21:07:28.432Z,21.19
2022-12-15T21:10:31.470Z,21.18
2022-12-15T21:13:36.008Z,21.15
2022-12-15T21:16:39.166Z,21.17
2022-12-15T21:19:43.646Z,21.18
2022-12-15T21:22:47.122Z,21.18
2022-12-15T21:25:50.627Z,21.18
2022-12-15T21:28:57.140Z,21.17
2022-12-15T21:32:00.189Z,21.17
2022-12-15T21:35:05.004Z,21.17
2022-12-15T21:38:09.074Z,21.17
2022-12-15T21:41:15.681Z,21.15
2022-12-15T21:44:18.770Z,21.08
2022-12-15T21:47:25.229Z,21.13
2022-12-15T21:50:28.655Z,21.13
2022-12-15T21:53:31.710Z,21.13
2022-12-15T21:56:34.743Z,21.12
2022-12-15T21:59:37.781Z,21.12
2022-12-15T22:02:41.430Z,21.13
2022-12-15T22:05:45.948Z,21.10
2022-12-15T22:08:49.496Z,21.12
2022-12-15T22:11:55.425Z,21.12
2022-12-15T22:14:58.520Z,21.12
2022-12-15T22:18:01.592Z,21.11
2022-12-15T22:21:07.809Z,21.11
2022-12-15T22:24:11.492Z,21.13
2022-12-15T22:27:20.568Z,21.10
2022-12-15T22:30:25.552Z,21.12
2022-12-15T22:33:29.649Z,21.10
2022-12-15T22:36:34.118Z,21.11
2022-12-15T22:39:37.184Z,21.11
2022-12-15T22:42:43.336Z,21.11
2022-12-15T22:45:46.579Z,21.11
2022-12-15T22:48:49.800Z,21.11
2022-12-15T22:51:55.097Z,21.10
2022-12-15T22:54:58.462Z,21.11
2022-12-15T22:58:03.736Z,21.09
2022-12-15T23:01:07.787Z,21.09
2022-12-15T23:04:11.678Z,21.10
2022-12-15T23:07:16.253Z,21.09
2022-12-15T23:10:38.144Z,21.09
2022-12-15T23:13:41.234Z,21.08
2022-12-15T23:16:45.844Z,21.13
2022-12-15T23:19:48.958Z,21.14
2022-12-15T23:22:53.420Z,21.10
2022-12-15T23:25:57.888Z,21.10
2022-12-15T23:29:00.925Z,21.04
2022-12-15T23:32:03.941Z,21.09
2022-12-15T23:35:07.886Z,21.09
2022-12-15T23:38:12.774Z,21.12
2022-12-15T23:41:18.028Z,21.11
2022-12-15T23:44:21.106Z,21.10
2022-12-15T23:47:24.490Z,21.10
2022-12-15T23:50:27.503Z,21.08
2022-12-15T23:53:32.229Z,21.08
2022-12-15T23:56:35.540Z,21.07
2022-12-15T23:59:38.570Z,21.07
